sensor_id;sensor_type;location;lat;lon;timestamp;temperature;humidity
21805;DHT22;11064;47.102;15.452;2023-05-07T05:02:28;14.40;99.90
21805;DHT22;11064;47.102;15.452;2023-05-07T05:04:54;15.40;99.90
21805;DHT22;11064;47.102;15.452;2023-05-07T05:07:20;16.40;99.90
21805;DHT22;11064;47.102;15.452;2023-05-07T05:09:46;17.60;99.90
21805;DHT22;11064;47.102;15.452;2023-05-07T05:12:11;18.50;99.90
21805;DHT22;11064;47.102;15.452;2023-05-07T05:14:37;19.40;99.90
21805;DHT22;11064;47.102;15.452;2023-05-07T05:17:03;20.00;99.90
21805;DHT22;11064;47.102;15.452;2023-05-07T05:19:29;20.00;99.90
21805;DHT22;11064;47.102;15.452;2023-05-07T05:21:54;18.90;99.90
21805;DHT22;11064;47.102;15.452;2023-05-07T05:24:20;18.80;99.90
21805;DHT22;11064;47.102;15.452;2023-05-07T05:26:46;18.60;99.90
21805;DHT22;11064;47.102;15.452;2023-05-07T05:29:12;18.60;99.90
21805;DHT22;11064;47.102;15.452;2023-05-07T05:31:37;18.60;99.90
21805;DHT22;11064;47.102;15.452;2023-05-07T05:34:03;18.30;99.90
21805;DHT22;11064;47.102;15.452;2023-05-07T05:36:29;17.80;99.90
21805;DHT22;11064;47.102;15.452;2023-05-07T05:38:56;16.70;99.90
21805;DHT22;11064;47.102;15.452;2023-05-07T05:41:21;16.10;99.90
21805;DHT22;11064;47.102;15.452;2023-05-07T05:43:49;15.50;99.90
21805;DHT22;11064;47.102;15.452;2023-05-07T05:46:15;15.20;99.90
21805;DHT22;11064;47.102;15.452;2023-05-07T05:48:41;15.00;99.90
21805;DHT22;11064;47.102;15.452;2023-05-07T05:51:06;15.10;99.90
21805;DHT22;11064;47.102;15.452;2023-05-07T05:53:32;15.20;99.90
21805;DHT22;11064;47.102;15.452;2023-05-07T05:55:58;15.40;99.90
21805;DHT22;11064;47.102;15.452;2023-05-07T05:58:24;15.50;99.90
21805;DHT22;11064;47.102;15.452;2023-05-07T06:00:50;15.70;99.90
21805;DHT22;11064;47.102;15.452;2023-05-07T06:03:18;15.90;99.90
21805;DHT22;11064;47.102;15.452;2023-05-07T06:05:43;15.90;99.90
21805;DHT22;11064;47.102;15.452;2023-05-07T06:08:09;16.20;99.90
21805;DHT22;11064;47.102;15.452;2023-05-07T06:10:36;16.40;99.90
21805;DHT22;11064;47.102;15.452;2023-05-07T06:13:02;16.50;99.90
21805;DHT22;11064;47.102;15.452;2023-05-07T06:15:28;16.70;99.90
21805;DHT22;11064;47.102;15.452;2023-05-07T06:17:54;16.80;99.90
21805;DHT22;11064;47.102;15.452;2023-05-07T06:20:21;17.00;99.90
21805;DHT22;11064;47.102;15.452;2023-05-07T06:22:47;17.20;99.90
21805;DHT22;11064;47.102;15.452;2023-05-07T06:25:13;17.20;99.90
21805;DHT22;11064;47.102;15.452;2023-05-07T06:27:38;17.00;99.90
21805;DHT22;11064;47.102;15.452;2023-05-07T06:30:06;17.10;99.90
21805;DHT22;11064;47.102;15.452;2023-05-07T06:32:31;17.00;99.90
21805;DHT22;11064;47.102;15.452;2023-05-07T06:34:57;16.90;99.90
21805;DHT22;11064;47.102;15.452;2023-05-07T06:37:23;16.80;99.90
21805;DHT22;11064;47.102;15.452;2023-05-07T06:39:49;16.90;99.90
21805;DHT22;11064;47.102;15.452;2023-05-07T06:42:15;16.90;99.90
21805;DHT22;11064;47.102;15.452;2023-05-07T06:44:40;16.80;99.90
21805;DHT22;11064;47.102;15.452;2023-05-07T06:47:06;16.90;99.90
21805;DHT22;11064;47.102;15.452;2023-05-07T06:49:32;16.90;99.90
21805;DHT22;11064;47.102;15.452;2023-05-07T06:51:58;16.80;99.90
21805;DHT22;11064;47.102;15.452;2023-05-07T06:54:24;16.80;99.90
21805;DHT22;11064;47.102;15.452;2023-05-07T06:56:50;16.80;99.90
21805;DHT22;11064;47.102;15.452;2023-05-07T06:59:16;16.60;99.90
21805;DHT22;11064;47.102;15.452;2023-05-07T07:01:41;16.70;99.90
21805;DHT22;11064;47.102;15.452;2023-05-07T07:04:07;16.60;99.90
21805;DHT22;11064;47.102;15.452;2023-05-07T07:06:33;16.80;99.90
21805;DHT22;11064;47.102;15.452;2023-05-07T07:08:59;16.90;99.90
21805;DHT22;11064;47.102;15.452;2023-05-07T07:11:25;16.80;99.90
21805;DHT22;11064;47.102;15.452;2023-05-07T07:13:51;16.90;99.90
21805;DHT22;11064;47.102;15.452;2023-05-07T07:16:22;17.00;99.90
21805;DHT22;11064;47.102;15.452;2023-05-07T07:18:48;16.80;99.90
21805;DHT22;11064;47.102;15.452;2023-05-07T07:21:14;16.90;99.90
21805;DHT22;11064;47.102;15.452;2023-05-07T07:23:40;17.00;99.90
21805;DHT22;11064;47.102;15.452;2023-05-07T07:26:06;17.00;99.90
21805;DHT22;11064;47.102;15.452;2023-05-07T07:28:32;17.00;99.90
21805;DHT22;11064;47.102;15.452;2023-05-07T07:30:58;17.00;99.90
21805;DHT22;11064;47.102;15.452;2023-05-07T07:33:23;17.00;99.90
21805;DHT22;11064;47.102;15.452;2023-05-07T07:35:49;16.90;99.90
21805;DHT22;11064;47.102;15.452;2023-05-07T07:38:15;17.00;99.90
21805;DHT22;11064;47.102;15.452;2023-05-07T07:40:41;17.10;99.90
21805;DHT22;11064;47.102;15.452;2023-05-07T07:43:07;17.10;99.90
21805;DHT22;11064;47.102;15.452;2023-05-07T07:45:33;17.10;99.90
21805;DHT22;11064;47.102;15.452;2023-05-07T07:48:00;17.50;99.90
21805;DHT22;11064;47.102;15.452;2023-05-07T07:50:26;17.80;99.90
21805;DHT22;11064;47.102;15.452;2023-05-07T07:52:52;18.10;99.90
21805;DHT22;11064;47.102;15.452;2023-05-07T07:55:20;18.10;99.90
21805;DHT22;11064;47.102;15.452;2023-05-07T07:57:49;18.40;99.90
21805;DHT22;11064;47.102;15.452;2023-05-07T08:00:15;18.70;99.90
21805;DHT22;11064;47.102;15.452;2023-05-07T08:02:42;19.00;99.90
21805;DHT22;11064;47.102;15.452;2023-05-07T08:05:08;19.50;99.90
21805;DHT22;11064;47.102;15.452;2023-05-07T08:07:34;19.70;99.90
21805;DHT22;11064;47.102;15.452;2023-05-07T08:09:59;19.60;99.90
21805;DHT22;11064;47.102;15.452;2023-05-07T08:12:25;19.90;99.90
21805;DHT22;11064;47.102;15.452;2023-05-07T08:14:51;20.00;99.90
21805;DHT22;11064;47.102;15.452;2023-05-07T08:17:17;19.90;99.90
21805;DHT22;11064;47.102;15.452;2023-05-07T08:19:43;20.00;99.90
21805;DHT22;11064;47.102;15.452;2023-05-07T08:22:10;20.20;99.90
21805;DHT22;11064;47.102;15.452;2023-05-07T08:24:37;20.10;99.90
21805;DHT22;11064;47.102;15.452;2023-05-07T08:27:03;19.80;99.90
21805;DHT22;11064;47.102;15.452;2023-05-07T08:29:28;19.80;99.90
21805;DHT22;11064;47.102;15.452;2023-05-07T08:31:54;20.00;99.90
21805;DHT22;11064;47.102;15.452;2023-05-07T08:34:22;19.90;99.90
21805;DHT22;11064;47.102;15.452;2023-05-07T08:36:48;19.80;99.90
21805;DHT22;11064;47.102;15.452;2023-05-07T08:39:15;19.90;99.90
21805;DHT22;11064;47.102;15.452;2023-05-07T08:41:45;20.10;99.90
21805;DHT22;11064;47.102;15.452;2023-05-07T08:44:13;19.60;99.90
21805;DHT22;11064;47.102;15.452;2023-05-07T08:46:42;19.20;99.90
21805;DHT22;11064;47.102;15.452;2023-05-07T08:49:12;19.60;99.90
21805;DHT22;11064;47.102;15.452;2023-05-07T08:51:38;19.80;99.90
21805;DHT22;11064;47.102;15.452;2023-05-07T08:54:04;19.90;99.90
21805;DHT22;11064;47.102;15.452;2023-05-07T08:56:31;20.00;99.90
21805;DHT22;11064;47.102;15.452;2023-05-07T08:58:57;19.80;99.90
21805;DHT22;11064;47.102;15.452;2023-05-07T09:01:24;20.30;99.90
21805;DHT22;11064;47.102;15.452;2023-05-07T09:03:51;20.70;99.90
21805;DHT22;11064;47.102;15.452;2023-05-07T09:06:17;20.50;99.90
21805;DHT22;11064;47.102;15.452;2023-05-07T09:08:53;20.20;99.90
21805;DHT22;11064;47.102;15.452;2023-05-07T09:11:22;20.20;99.90
21805;DHT22;11064;47.102;15.452;2023-05-07T09:13:56;20.30;99.90
21805;DHT22;11064;47.102;15.452;2023-05-07T09:16:24;20.50;99.90
21805;DHT22;11064;47.102;15.452;2023-05-07T09:18:54;20.50;99.90
21805;DHT22;11064;47.102;15.452;2023-05-07T09:21:21;20.20;99.90
21805;DHT22;11064;47.102;15.452;2023-05-07T09:23:52;20.30;99.90
21805;DHT22;11064;47.102;15.452;2023-05-07T09:26:19;20.50;99.90
21805;DHT22;11064;47.102;15.452;2023-05-07T09:28:46;20.60;99.90
21805;DHT22;11064;47.102;15.452;2023-05-07T09:31:12;20.10;99.90
21805;DHT22;11064;47.102;15.452;2023-05-07T09:33:39;19.60;99.90
21805;DHT22;11064;47.102;15.452;2023-05-07T09:36:06;19.40;99.90
21805;DHT22;11064;47.102;15.452;2023-05-07T09:38:33;19.50;99.90
21805;DHT22;11064;47.102;15.452;2023-05-07T09:41:08;19.80;99.90
21805;DHT22;11064;47.102;15.452;2023-05-07T09:43:36;20.00;99.90
21805;DHT22;11064;47.102;15.452;2023-05-07T09:46:06;20.10;99.90
21805;DHT22;11064;47.102;15.452;2023-05-07T09:48:35;20.10;99.90
21805;DHT22;11064;47.102;15.452;2023-05-07T09:51:02;20.10;99.90
21805;DHT22;11064;47.102;15.452;2023-05-07T09:53:33;20.20;99.90
21805;DHT22;11064;47.102;15.452;2023-05-07T09:56:00;20.20;99.90
21805;DHT22;11064;47.102;15.452;2023-05-07T09:58:26;20.10;99.90
21805;DHT22;11064;47.102;15.452;2023-05-07T10:00:52;19.90;99.90
21805;DHT22;11064;47.102;15.452;2023-05-07T10:03:19;20.10;99.90
21805;DHT22;11064;47.102;15.452;2023-05-07T10:05:46;20.30;99.90
21805;DHT22;11064;47.102;15.452;2023-05-07T10:08:13;20.30;99.90
21805;DHT22;11064;47.102;15.452;2023-05-07T10:10:42;20.20;99.90
21805;DHT22;11064;47.102;15.452;2023-05-07T10:13:09;20.00;99.90
21805;DHT22;11064;47.102;15.452;2023-05-07T10:15:36;19.90;99.90
21805;DHT22;11064;47.102;15.452;2023-05-07T10:18:04;20.50;99.90
21805;DHT22;11064;47.102;15.452;2023-05-07T10:20:33;21.10;99.90
21805;DHT22;11064;47.102;15.452;2023-05-07T10:22:59;21.50;98.90
21805;DHT22;11064;47.102;15.452;2023-05-07T10:25:29;21.80;99.20
21805;DHT22;11064;47.102;15.452;2023-05-07T10:27:58;21.50;94.70
21805;DHT22;11064;47.102;15.452;2023-05-07T10:30:51;21.70;96.70
21805;DHT22;11064;47.102;15.452;2023-05-07T10:33:26;21.70;95.30
21805;DHT22;11064;47.102;15.452;2023-05-07T10:35:59;21.20;95.00
21805;DHT22;11064;47.102;15.452;2023-05-07T10:38:27;21.10;95.70
21805;DHT22;11064;47.102;15.452;2023-05-07T10:40:53;21.50;94.80
21805;DHT22;11064;47.102;15.452;2023-05-07T10:43:19;22.00;93.90
21805;DHT22;11064;47.102;15.452;2023-05-07T10:46:15;22.40;92.90
21805;DHT22;11064;47.102;15.452;2023-05-07T10:51:30;23.50;93.00
21805;DHT22;11064;47.102;15.452;2023-05-07T10:56:39;23.60;92.80
21805;DHT22;11064;47.102;15.452;2023-05-07T10:59:38;23.00;88.50
21805;DHT22;11064;47.102;15.452;2023-05-07T11:02:07;23.50;90.90
21805;DHT22;11064;47.102;15.452;2023-05-07T11:04:35;24.10;89.30
21805;DHT22;11064;47.102;15.452;2023-05-07T11:09:56;25.20;83.90
21805;DHT22;11064;47.102;15.452;2023-05-07T11:12:49;25.20;81.70
21805;DHT22;11064;47.102;15.452;2023-05-07T11:15:15;25.90;78.00
21805;DHT22;11064;47.102;15.452;2023-05-07T11:17:59;26.10;72.30
21805;DHT22;11064;47.102;15.452;2023-05-07T11:20:44;26.30;71.80
21805;DHT22;11064;47.102;15.452;2023-05-07T11:26:04;26.10;72.30
21805;DHT22;11064;47.102;15.452;2023-05-07T11:28:31;26.00;73.80
21805;DHT22;11064;47.102;15.452;2023-05-07T11:30:57;26.30;75.20
21805;DHT22;11064;47.102;15.452;2023-05-07T11:33:23;25.60;71.00
21805;DHT22;11064;47.102;15.452;2023-05-07T11:35:55;25.50;73.90
21805;DHT22;11064;47.102;15.452;2023-05-07T11:38:21;25.00;75.20
21805;DHT22;11064;47.102;15.452;2023-05-07T11:43:17;25.90;71.90
21805;DHT22;11064;47.102;15.452;2023-05-07T11:45:43;25.70;70.30
21805;DHT22;11064;47.102;15.452;2023-05-07T11:48:09;25.10;71.90
21805;DHT22;11064;47.102;15.452;2023-05-07T11:50:35;24.70;73.40
21805;DHT22;11064;47.102;15.452;2023-05-07T11:53:07;25.60;76.60
21805;DHT22;11064;47.102;15.452;2023-05-07T11:55:33;26.00;75.10
21805;DHT22;11064;47.102;15.452;2023-05-07T11:57:59;26.20;71.80
21805;DHT22;11064;47.102;15.452;2023-05-07T12:00:25;26.00;73.90
21805;DHT22;11064;47.102;15.452;2023-05-07T12:02:51;25.70;72.30
21805;DHT22;11064;47.102;15.452;2023-05-07T12:05:17;26.50;70.10
21805;DHT22;11064;47.102;15.452;2023-05-07T12:07:42;25.50;69.70
21805;DHT22;11064;47.102;15.452;2023-05-07T12:10:09;25.90;69.10
21805;DHT22;11064;47.102;15.452;2023-05-07T12:12:40;26.00;66.00
21805;DHT22;11064;47.102;15.452;2023-05-07T12:15:07;25.10;69.40
21805;DHT22;11064;47.102;15.452;2023-05-07T12:17:33;25.40;71.70
21805;DHT22;11064;47.102;15.452;2023-05-07T12:20:00;25.60;73.30
21805;DHT22;11064;47.102;15.452;2023-05-07T12:22:26;25.50;67.00
21805;DHT22;11064;47.102;15.452;2023-05-07T12:24:59;25.10;68.80
21805;DHT22;11064;47.102;15.452;2023-05-07T12:27:26;25.00;71.40
21805;DHT22;11064;47.102;15.452;2023-05-07T12:29:52;24.90;73.10
21805;DHT22;11064;47.102;15.452;2023-05-07T12:32:19;24.70;74.30
21805;DHT22;11064;47.102;15.452;2023-05-07T12:34:46;24.20;77.30
21805;DHT22;11064;47.102;15.452;2023-05-07T12:37:13;24.20;76.10
21805;DHT22;11064;47.102;15.452;2023-05-07T12:39:44;23.50;77.70
21805;DHT22;11064;47.102;15.452;2023-05-07T12:42:15;23.20;78.20
21805;DHT22;11064;47.102;15.452;2023-05-07T12:44:43;22.90;77.80
21805;DHT22;11064;47.102;15.452;2023-05-07T12:47:10;22.30;79.70
21805;DHT22;11064;47.102;15.452;2023-05-07T12:49:37;21.80;84.50
21805;DHT22;11064;47.102;15.452;2023-05-07T12:52:04;21.40;85.60
21805;DHT22;11064;47.102;15.452;2023-05-07T12:54:32;20.90;88.80
21805;DHT22;11064;47.102;15.452;2023-05-07T12:57:08;20.50;89.60
21805;DHT22;11064;47.102;15.452;2023-05-07T12:59:37;20.10;91.30
21805;DHT22;11064;47.102;15.452;2023-05-07T13:02:04;19.70;94.10
21805;DHT22;11064;47.102;15.452;2023-05-07T13:04:29;19.30;98.20
21805;DHT22;11064;47.102;15.452;2023-05-07T13:06:55;18.70;99.90
21805;DHT22;11064;47.102;15.452;2023-05-07T13:09:21;18.40;99.90
21805;DHT22;11064;47.102;15.452;2023-05-07T13:11:47;18.20;99.90
21805;DHT22;11064;47.102;15.452;2023-05-07T13:14:13;18.10;99.90
21805;DHT22;11064;47.102;15.452;2023-05-07T13:16:38;18.10;99.90
21805;DHT22;11064;47.102;15.452;2023-05-07T13:19:04;18.00;99.90
21805;DHT22;11064;47.102;15.452;2023-05-07T13:21:30;18.00;99.90
21805;DHT22;11064;47.102;15.452;2023-05-07T13:23:57;17.90;99.90
21805;DHT22;11064;47.102;15.452;2023-05-07T13:26:24;17.50;99.90
21805;DHT22;11064;47.102;15.452;2023-05-07T13:28:50;17.10;99.90
21805;DHT22;11064;47.102;15.452;2023-05-07T13:31:17;16.40;99.90
21805;DHT22;11064;47.102;15.452;2023-05-07T13:33:43;16.00;99.90
21805;DHT22;11064;47.102;15.452;2023-05-07T13:36:08;15.70;99.90
21805;DHT22;11064;47.102;15.452;2023-05-07T13:38:34;15.50;99.90
21805;DHT22;11064;47.102;15.452;2023-05-07T13:41:01;15.30;99.90
21805;DHT22;11064;47.102;15.452;2023-05-07T13:43:27;15.20;99.90
21805;DHT22;11064;47.102;15.452;2023-05-07T13:45:52;15.10;99.90
21805;DHT22;11064;47.102;15.452;2023-05-07T13:48:18;15.20;99.90
21805;DHT22;11064;47.102;15.452;2023-05-07T13:50:44;15.20;99.90
21805;DHT22;11064;47.102;15.452;2023-05-07T13:53:10;15.10;99.90
21805;DHT22;11064;47.102;15.452;2023-05-07T13:55:36;15.10;99.90
21805;DHT22;11064;47.102;15.452;2023-05-07T13:58:02;15.00;99.90
21805;DHT22;11064;47.102;15.452;2023-05-07T14:00:29;15.00;99.90
21805;DHT22;11064;47.102;15.452;2023-05-07T14:02:56;15.00;99.90
21805;DHT22;11064;47.102;15.452;2023-05-07T14:05:22;15.00;99.90
21805;DHT22;11064;47.102;15.452;2023-05-07T14:07:52;15.10;99.90
21805;DHT22;11064;47.102;15.452;2023-05-07T14:10:19;15.20;99.90
21805;DHT22;11064;47.102;15.452;2023-05-07T14:12:46;15.30;99.90
21805;DHT22;11064;47.102;15.452;2023-05-07T14:15:12;15.50;99.90
21805;DHT22;11064;47.102;15.452;2023-05-07T14:17:38;15.60;99.90
21805;DHT22;11064;47.102;15.452;2023-05-07T14:20:04;15.60;99.90
21805;DHT22;11064;47.102;15.452;2023-05-07T14:22:31;15.50;99.90
21805;DHT22;11064;47.102;15.452;2023-05-07T14:24:57;15.50;99.90
21805;DHT22;11064;47.102;15.452;2023-05-07T14:27:23;15.40;99.90
21805;DHT22;11064;47.102;15.452;2023-05-07T14:29:49;15.60;99.90
21805;DHT22;11064;47.102;15.452;2023-05-07T14:32:19;15.70;99.90
21805;DHT22;11064;47.102;15.452;2023-05-07T14:34:45;16.00;99.90
21805;DHT22;11064;47.102;15.452;2023-05-07T14:37:11;16.10;99.90
21805;DHT22;11064;47.102;15.452;2023-05-07T14:39:37;16.20;99.90
21805;DHT22;11064;47.102;15.452;2023-05-07T14:42:03;16.10;99.90
21805;DHT22;11064;47.102;15.452;2023-05-07T14:44:29;16.20;99.90
21805;DHT22;11064;47.102;15.452;2023-05-07T14:46:55;16.20;99.90
21805;DHT22;11064;47.102;15.452;2023-05-07T14:49:21;16.10;99.90
21805;DHT22;11064;47.102;15.452;2023-05-07T14:51:47;16.20;99.90
21805;DHT22;11064;47.102;15.452;2023-05-07T14:54:14;16.30;99.90
21805;DHT22;11064;47.102;15.452;2023-05-07T14:56:41;16.40;99.90
21805;DHT22;11064;47.102;15.452;2023-05-07T14:59:07;16.30;99.90
21805;DHT22;11064;47.102;15.452;2023-05-07T15:01:36;16.40;99.90
21805;DHT22;11064;47.102;15.452;2023-05-07T15:04:05;16.30;99.90
21805;DHT22;11064;47.102;15.452;2023-05-07T15:06:31;16.20;99.90
21805;DHT22;11064;47.102;15.452;2023-05-07T15:08:57;16.40;99.90
21805;DHT22;11064;47.102;15.452;2023-05-07T15:11:23;16.40;99.90
21805;DHT22;11064;47.102;15.452;2023-05-07T15:13:50;16.20;99.90
21805;DHT22;11064;47.102;15.452;2023-05-07T15:16:16;16.20;99.90
21805;DHT22;11064;47.102;15.452;2023-05-07T15:18:42;16.20;99.90
21805;DHT22;11064;47.102;15.452;2023-05-07T15:21:08;16.30;99.90
21805;DHT22;11064;47.102;15.452;2023-05-07T15:23:34;16.40;99.90
21805;DHT22;11064;47.102;15.452;2023-05-07T15:26:00;16.40;99.90
21805;DHT22;11064;47.102;15.452;2023-05-07T15:28:27;16.50;99.90
21805;DHT22;11064;47.102;15.452;2023-05-07T15:30:54;16.50;99.90
21805;DHT22;11064;47.102;15.452;2023-05-07T15:33:20;16.50;99.90
21805;DHT22;11064;47.102;15.452;2023-05-07T15:35:46;16.50;99.90
21805;DHT22;11064;47.102;15.452;2023-05-07T15:38:12;16.50;99.90
21805;DHT22;11064;47.102;15.452;2023-05-07T15:40:39;16.60;99.90
21805;DHT22;11064;47.102;15.452;2023-05-07T15:43:08;16.70;99.90
21805;DHT22;11064;47.102;15.452;2023-05-07T15:45:41;17.10;99.90
21805;DHT22;11064;47.102;15.452;2023-05-07T15:48:08;17.00;99.90
21805;DHT22;11064;47.102;15.452;2023-05-07T15:50:35;17.20;99.90
21805;DHT22;11064;47.102;15.452;2023-05-07T15:53:02;17.10;99.90
21805;DHT22;11064;47.102;15.452;2023-05-07T15:55:29;16.90;99.90
21805;DHT22;11064;47.102;15.452;2023-05-07T15:57:55;16.80;99.90
21805;DHT22;11064;47.102;15.452;2023-05-07T16:00:22;16.50;99.90
21805;DHT22;11064;47.102;15.452;2023-05-07T16:02:47;16.40;99.90
21805;DHT22;11064;47.102;15.452;2023-05-07T16:05:13;16.20;99.90
21805;DHT22;11064;47.102;15.452;2023-05-07T16:07:40;16.10;99.90
21805;DHT22;11064;47.102;15.452;2023-05-07T16:10:08;16.00;99.90
21805;DHT22;11064;47.102;15.452;2023-05-07T16:12:34;16.00;99.90
21805;DHT22;11064;47.102;15.452;2023-05-07T16:15:00;15.90;99.90
21805;DHT22;11064;47.102;15.452;2023-05-07T16:17:26;15.90;99.90
21805;DHT22;11064;47.102;15.452;2023-05-07T16:19:52;15.80;99.90
21805;DHT22;11064;47.102;15.452;2023-05-07T16:22:18;15.80;99.90
21805;DHT22;11064;47.102;15.452;2023-05-07T16:24:44;15.90;99.90
21805;DHT22;11064;47.102;15.452;2023-05-07T16:27:10;15.90;99.90
21805;DHT22;11064;47.102;15.452;2023-05-07T16:29:36;15.90;99.90
21805;DHT22;11064;47.102;15.452;2023-05-07T16:32:02;15.90;99.90
21805;DHT22;11064;47.102;15.452;2023-05-07T16:34:28;15.90;99.90
21805;DHT22;11064;47.102;15.452;2023-05-07T16:36:54;15.90;99.90
21805;DHT22;11064;47.102;15.452;2023-05-07T16:39:20;15.80;99.90
21805;DHT22;11064;47.102;15.452;2023-05-07T16:41:46;15.90;99.90
21805;DHT22;11064;47.102;15.452;2023-05-07T16:44:13;15.90;99.90
21805;DHT22;11064;47.102;15.452;2023-05-07T16:46:39;15.90;99.90
21805;DHT22;11064;47.102;15.452;2023-05-07T16:49:05;15.90;99.90
21805;DHT22;11064;47.102;15.452;2023-05-07T16:51:32;15.90;99.90
21805;DHT22;11064;47.102;15.452;2023-05-07T16:53:59;15.90;99.90
21805;DHT22;11064;47.102;15.452;2023-05-07T16:56:25;16.00;99.90
21805;DHT22;11064;47.102;15.452;2023-05-07T16:58:51;16.00;99.90
21805;DHT22;11064;47.102;15.452;2023-05-07T17:01:17;15.90;99.90
21805;DHT22;11064;47.102;15.452;2023-05-07T17:03:44;16.00;99.90
21805;DHT22;11064;47.102;15.452;2023-05-07T17:06:10;16.00;99.90
21805;DHT22;11064;47.102;15.452;2023-05-07T17:08:42;16.00;99.90
21805;DHT22;11064;47.102;15.452;2023-05-07T17:11:09;16.00;99.90
21805;DHT22;11064;47.102;15.452;2023-05-07T17:13:35;16.00;99.90
21805;DHT22;11064;47.102;15.452;2023-05-07T17:16:01;15.80;99.90
21805;DHT22;11064;47.102;15.452;2023-05-07T17:18:27;15.80;99.90
21805;DHT22;11064;47.102;15.452;2023-05-07T17:20:52;15.80;99.90
21805;DHT22;11064;47.102;15.452;2023-05-07T17:23:18;15.70;99.90
21805;DHT22;11064;47.102;15.452;2023-05-07T17:25:44;15.60;99.90
21805;DHT22;11064;47.102;15.452;2023-05-07T17:28:13;15.50;99.90
21805;DHT22;11064;47.102;15.452;2023-05-07T17:30:39;15.40;99.90
21805;DHT22;11064;47.102;15.452;2023-05-07T17:33:05;15.30;99.90
21805;DHT22;11064;47.102;15.452;2023-05-07T17:35:31;15.20;99.90
21805;DHT22;11064;47.102;15.452;2023-05-07T17:38:01;15.10;99.90
21805;DHT22;11064;47.102;15.452;2023-05-07T17:40:27;15.00;99.90
21805;DHT22;11064;47.102;15.452;2023-05-07T17:42:54;14.90;99.90
21805;DHT22;11064;47.102;15.452;2023-05-07T17:45:20;14.90;99.90
21805;DHT22;11064;47.102;15.452;2023-05-07T17:47:46;14.80;99.90
21805;DHT22;11064;47.102;15.452;2023-05-07T17:50:12;14.80;99.90
21805;DHT22;11064;47.102;15.452;2023-05-07T17:52:40;14.80;99.90
21805;DHT22;11064;47.102;15.452;2023-05-07T17:55:07;14.80;99.90
21805;DHT22;11064;47.102;15.452;2023-05-07T17:57:33;14.70;99.90
21805;DHT22;11064;47.102;15.452;2023-05-07T18:00:03;14.70;99.90
21805;DHT22;11064;47.102;15.452;2023-05-07T18:02:32;14.70;99.90
21805;DHT22;11064;47.102;15.452;2023-05-07T18:04:58;14.60;99.90
21805;DHT22;11064;47.102;15.452;2023-05-07T18:07:24;14.60;99.90
21805;DHT22;11064;47.102;15.452;2023-05-07T18:09:50;14.50;99.90
21805;DHT22;11064;47.102;15.452;2023-05-07T18:12:16;14.40;99.90
21805;DHT22;11064;47.102;15.452;2023-05-07T18:14:42;14.40;99.90
21805;DHT22;11064;47.102;15.452;2023-05-07T18:17:08;14.40;99.90
21805;DHT22;11064;47.102;15.452;2023-05-07T18:19:34;14.40;99.90
21805;DHT22;11064;47.102;15.452;2023-05-07T18:21:59;14.30;99.90
21805;DHT22;11064;47.102;15.452;2023-05-07T18:24:25;14.30;99.90
21805;DHT22;11064;47.102;15.452;2023-05-07T18:26:51;14.30;99.90
21805;DHT22;11064;47.102;15.452;2023-05-07T18:29:17;14.30;99.90
21805;DHT22;11064;47.102;15.452;2023-05-07T18:31:43;14.20;99.90
21805;DHT22;11064;47.102;15.452;2023-05-07T18:34:09;14.20;99.90
21805;DHT22;11064;47.102;15.452;2023-05-07T18:36:35;14.20;99.90
21805;DHT22;11064;47.102;15.452;2023-05-07T18:39:01;14.20;99.90
21805;DHT22;11064;47.102;15.452;2023-05-07T18:41:27;14.20;99.90
21805;DHT22;11064;47.102;15.452;2023-05-07T18:43:52;14.20;99.90
21805;DHT22;11064;47.102;15.452;2023-05-07T18:46:18;14.10;99.90
21805;DHT22;11064;47.102;15.452;2023-05-07T18:48:44;14.10;99.90
21805;DHT22;11064;47.102;15.452;2023-05-07T18:51:10;14.00;99.90
21805;DHT22;11064;47.102;15.452;2023-05-07T18:53:40;14.10;99.90
21805;DHT22;11064;47.102;15.452;2023-05-07T18:56:06;14.10;99.90
21805;DHT22;11064;47.102;15.452;2023-05-07T18:58:33;14.10;99.90
21805;DHT22;11064;47.102;15.452;2023-05-07T19:00:59;14.10;99.90
21805;DHT22;11064;47.102;15.452;2023-05-07T19:03:26;14.10;99.90
21805;DHT22;11064;47.102;15.452;2023-05-07T19:05:52;14.10;99.90
21805;DHT22;11064;47.102;15.452;2023-05-07T19:08:18;14.10;99.90
21805;DHT22;11064;47.102;15.452;2023-05-07T19:10:44;14.00;99.90
21805;DHT22;11064;47.102;15.452;2023-05-07T19:13:10;14.00;99.90
21805;DHT22;11064;47.102;15.452;2023-05-07T19:15:36;14.00;99.90
21805;DHT22;11064;47.102;15.452;2023-05-07T19:18:02;13.90;99.90
21805;DHT22;11064;47.102;15.452;2023-05-07T19:20:28;13.90;99.90
21805;DHT22;11064;47.102;15.452;2023-05-07T19:22:55;14.00;99.90
21805;DHT22;11064;47.102;15.452;2023-05-07T19:25:21;14.00;99.90
21805;DHT22;11064;47.102;15.452;2023-05-07T19:27:47;13.90;99.90
21805;DHT22;11064;47.102;15.452;2023-05-07T19:30:13;13.90;99.90
21805;DHT22;11064;47.102;15.452;2023-05-07T19:32:38;13.90;99.90
21805;DHT22;11064;47.102;15.452;2023-05-07T19:35:05;13.90;99.90
21805;DHT22;11064;47.102;15.452;2023-05-07T19:37:32;13.90;99.90
21805;DHT22;11064;47.102;15.452;2023-05-07T19:39:58;13.90;99.90
21805;DHT22;11064;47.102;15.452;2023-05-07T19:42:30;13.90;99.90
21805;DHT22;11064;47.102;15.452;2023-05-07T19:44:55;13.90;99.90
21805;DHT22;11064;47.102;15.452;2023-05-07T19:47:22;13.80;99.90
21805;DHT22;11064;47.102;15.452;2023-05-07T19:49:48;13.90;99.90
21805;DHT22;11064;47.102;15.452;2023-05-07T19:52:14;13.80;99.90
21805;DHT22;11064;47.102;15.452;2023-05-07T19:54:40;13.80;99.90
21805;DHT22;11064;47.102;15.452;2023-05-07T19:57:06;13.70;99.90
21805;DHT22;11064;47.102;15.452;2023-05-07T19:59:32;13.80;99.90
21805;DHT22;11064;47.102;15.452;2023-05-07T20:01:58;13.90;99.90
21805;DHT22;11064;47.102;15.452;2023-05-07T20:04:25;13.90;99.90
21805;DHT22;11064;47.102;15.452;2023-05-07T20:06:55;13.90;99.90
21805;DHT22;11064;47.102;15.452;2023-05-07T20:09:22;13.90;99.90
21805;DHT22;11064;47.102;15.452;2023-05-07T20:11:47;13.90;99.90
21805;DHT22;11064;47.102;15.452;2023-05-07T20:14:13;13.90;99.90
21805;DHT22;11064;47.102;15.452;2023-05-07T20:16:40;13.90;99.90
21805;DHT22;11064;47.102;15.452;2023-05-07T20:19:05;13.90;99.90
21805;DHT22;11064;47.102;15.452;2023-05-07T20:21:31;13.90;99.90
21805;DHT22;11064;47.102;15.452;2023-05-07T20:23:57;13.90;99.90
21805;DHT22;11064;47.102;15.452;2023-05-07T20:26:23;13.90;99.90
21805;DHT22;11064;47.102;15.452;2023-05-07T20:28:49;13.90;99.90